sensor_id;sensor_type;location;lat;lon;timestamp;noise_LAeq;noise_LA_min;noise_LA_max;noise_LA01;noise_LA95
77361;Laerm;66427;51.798;10.954;2023-04-24T00:00:14;34.59;27.39;50.01;;
77361;Laerm;66427;51.798;10.954;2023-04-24T00:02:41;30.94;28.02;38.74;;
77361;Laerm;66427;51.798;10.954;2023-04-24T00:05:11;29.56;27.56;33.40;;
77361;Laerm;66427;51.798;10.954;2023-04-24T00:07:37;30.80;27.35;38.47;;
77361;Laerm;66427;51.798;10.954;2023-04-24T00:10:03;33.82;28.51;45.17;;
77361;Laerm;66427;51.798;10.954;2023-04-24T00:12:30;30.57;27.72;39.81;;
77361;Laerm;66427;51.798;10.954;2023-04-24T00:14:56;29.18;27.79;33.05;;
77361;Laerm;66427;51.798;10.954;2023-04-24T00:17:22;29.61;27.19;38.61;;
77361;Laerm;66427;51.798;10.954;2023-04-24T00:19:48;28.77;27.45;44.02;;
77361;Laerm;66427;51.798;10.954;2023-04-24T00:22:16;30.08;27.30;42.37;;
77361;Laerm;66427;51.798;10.954;2023-04-24T00:24:42;28.09;27.01;31.46;;
77361;Laerm;66427;51.798;10.954;2023-04-24T00:27:08;29.89;27.67;41.29;;
77361;Laerm;66427;51.798;10.954;2023-04-24T00:29:33;33.17;28.15;40.98;;
77361;Laerm;66427;51.798;10.954;2023-04-24T00:31:59;29.83;27.80;40.52;;
77361;Laerm;66427;51.798;10.954;2023-04-24T00:34:25;28.51;27.08;33.65;;
77361;Laerm;66427;51.798;10.954;2023-04-24T00:36:51;28.78;27.27;34.07;;
77361;Laerm;66427;51.798;10.954;2023-04-24T00:39:18;29.93;27.02;34.50;;
77361;Laerm;66427;51.798;10.954;2023-04-24T00:41:43;28.50;26.89;32.34;;
77361;Laerm;66427;51.798;10.954;2023-04-24T00:44:10;31.06;28.82;42.59;;
77361;Laerm;66427;51.798;10.954;2023-04-24T00:46:36;32.19;29.47;43.32;;
77361;Laerm;66427;51.798;10.954;2023-04-24T00:49:02;29.26;27.57;31.57;;
77361;Laerm;66427;51.798;10.954;2023-04-24T00:51:28;29.90;27.63;43.96;;
77361;Laerm;66427;51.798;10.954;2023-04-24T00:53:55;31.70;27.86;49.80;;
77361;Laerm;66427;51.798;10.954;2023-04-24T00:56:21;28.60;27.69;31.88;;
77361;Laerm;66427;51.798;10.954;2023-04-24T00:58:48;30.09;28.06;35.74;;
77361;Laerm;66427;51.798;10.954;2023-04-24T01:01:14;30.51;27.70;38.42;;
77361;Laerm;66427;51.798;10.954;2023-04-24T01:03:39;29.56;27.85;41.14;;
77361;Laerm;66427;51.798;10.954;2023-04-24T01:06:06;31.01;28.37;38.04;;
77361;Laerm;66427;51.798;10.954;2023-04-24T01:08:32;29.87;28.12;35.13;;
77361;Laerm;66427;51.798;10.954;2023-04-24T01:10:58;29.81;28.05;32.42;;
77361;Laerm;66427;51.798;10.954;2023-04-24T01:13:23;29.85;28.23;39.81;;
77361;Laerm;66427;51.798;10.954;2023-04-24T01:15:49;31.31;28.91;35.61;;
77361;Laerm;66427;51.798;10.954;2023-04-24T01:18:15;30.20;28.06;34.03;;
77361;Laerm;66427;51.798;10.954;2023-04-24T01:20:41;30.47;28.67;33.41;;
77361;Laerm;66427;51.798;10.954;2023-04-24T01:23:09;31.94;28.81;38.27;;
77361;Laerm;66427;51.798;10.954;2023-04-24T01:25:35;30.65;28.03;41.11;;
77361;Laerm;66427;51.798;10.954;2023-04-24T01:28:01;31.29;28.71;43.08;;
77361;Laerm;66427;51.798;10.954;2023-04-24T01:30:27;33.37;29.37;40.89;;
77361;Laerm;66427;51.798;10.954;2023-04-24T01:32:53;34.66;29.38;42.59;;
77361;Laerm;66427;51.798;10.954;2023-04-24T01:35:19;32.73;29.35;39.15;;
77361;Laerm;66427;51.798;10.954;2023-04-24T01:37:45;30.80;28.56;37.35;;
77361;Laerm;66427;51.798;10.954;2023-04-24T01:40:11;31.68;28.73;38.41;;
77361;Laerm;66427;51.798;10.954;2023-04-24T01:42:37;32.22;28.67;36.62;;
77361;Laerm;66427;51.798;10.954;2023-04-24T01:45:03;31.79;29.45;36.84;;
77361;Laerm;66427;51.798;10.954;2023-04-24T01:47:30;31.69;28.79;38.32;;
77361;Laerm;66427;51.798;10.954;2023-04-24T01:49:56;36.47;29.85;43.68;;
77361;Laerm;66427;51.798;10.954;2023-04-24T01:52:22;46.24;30.00;62.03;;
77361;Laerm;66427;51.798;10.954;2023-04-24T01:54:48;41.18;29.89;56.33;;
77361;Laerm;66427;51.798;10.954;2023-04-24T01:57:14;38.39;32.59;45.79;;
77361;Laerm;66427;51.798;10.954;2023-04-24T01:59:40;36.09;32.20;41.72;;
77361;Laerm;66427;51.798;10.954;2023-04-24T02:02:06;39.17;34.54;50.61;;
77361;Laerm;66427;51.798;10.954;2023-04-24T02:04:31;40.39;35.81;49.14;;
77361;Laerm;66427;51.798;10.954;2023-04-24T02:06:57;44.22;35.51;53.96;;
77361;Laerm;66427;51.798;10.954;2023-04-24T02:09:23;42.03;35.99;49.30;;
77361;Laerm;66427;51.798;10.954;2023-04-24T02:11:49;40.24;35.13;48.26;;
77361;Laerm;66427;51.798;10.954;2023-04-24T02:14:14;42.81;35.77;58.54;;
77361;Laerm;66427;51.798;10.954;2023-04-24T02:16:40;40.95;34.83;46.03;;
77361;Laerm;66427;51.798;10.954;2023-04-24T02:19:06;41.19;34.68;54.51;;
77361;Laerm;66427;51.798;10.954;2023-04-24T02:21:35;43.61;35.69;58.16;;
77361;Laerm;66427;51.798;10.954;2023-04-24T02:24:01;44.29;36.18;58.09;;
77361;Laerm;66427;51.798;10.954;2023-04-24T02:26:26;47.08;34.59;63.90;;
77361;Laerm;66427;51.798;10.954;2023-04-24T02:28:52;43.16;34.11;56.87;;
77361;Laerm;66427;51.798;10.954;2023-04-24T02:31:18;44.52;34.08;56.08;;
77361;Laerm;66427;51.798;10.954;2023-04-24T02:33:44;43.67;34.61;56.56;;
77361;Laerm;66427;51.798;10.954;2023-04-24T02:36:09;46.25;37.83;58.00;;
77361;Laerm;66427;51.798;10.954;2023-04-24T02:38:35;44.95;37.97;56.37;;
77361;Laerm;66427;51.798;10.954;2023-04-24T02:41:01;47.46;36.75;61.52;;
77361;Laerm;66427;51.798;10.954;2023-04-24T02:43:29;50.29;35.90;67.65;;
77361;Laerm;66427;51.798;10.954;2023-04-24T02:45:54;51.55;35.90;68.13;;
77361;Laerm;66427;51.798;10.954;2023-04-24T02:48:20;50.01;35.28;63.08;;
77361;Laerm;66427;51.798;10.954;2023-04-24T02:50:46;50.02;35.85;64.68;;
77361;Laerm;66427;51.798;10.954;2023-04-24T02:53:12;50.02;35.32;62.76;;
77361;Laerm;66427;51.798;10.954;2023-04-24T02:55:38;52.59;37.17;65.82;;
77361;Laerm;66427;51.798;10.954;2023-04-24T02:58:03;50.94;37.11;66.28;;
77361;Laerm;66427;51.798;10.954;2023-04-24T03:00:31;55.72;38.57;72.32;;
77361;Laerm;66427;51.798;10.954;2023-04-24T03:02:56;50.55;37.05;64.57;;
77361;Laerm;66427;51.798;10.954;2023-04-24T03:05:22;48.14;35.48;61.27;;
77361;Laerm;66427;51.798;10.954;2023-04-24T03:07:48;48.67;37.06;60.89;;
77361;Laerm;66427;51.798;10.954;2023-04-24T03:10:13;54.13;37.82;69.41;;
77361;Laerm;66427;51.798;10.954;2023-04-24T03:12:39;51.06;37.90;65.80;;
77361;Laerm;66427;51.798;10.954;2023-04-24T03:15:05;49.75;40.09;60.62;;
77361;Laerm;66427;51.798;10.954;2023-04-24T03:17:31;52.92;41.31;66.98;;
77361;Laerm;66427;51.798;10.954;2023-04-24T03:19:57;49.11;41.14;60.36;;
77361;Laerm;66427;51.798;10.954;2023-04-24T03:22:23;48.76;41.23;58.12;;
77361;Laerm;66427;51.798;10.954;2023-04-24T03:24:49;51.62;41.26;64.85;;
77361;Laerm;66427;51.798;10.954;2023-04-24T03:27:15;51.51;41.54;63.17;;
77361;Laerm;66427;51.798;10.954;2023-04-24T03:29:40;48.92;41.00;60.60;;
77361;Laerm;66427;51.798;10.954;2023-04-24T03:32:06;50.55;39.93;71.49;;
77361;Laerm;66427;51.798;10.954;2023-04-24T03:34:32;48.70;40.49;65.34;;
77361;Laerm;66427;51.798;10.954;2023-04-24T03:36:57;51.53;39.80;70.02;;
77361;Laerm;66427;51.798;10.954;2023-04-24T03:39:23;50.25;41.16;66.12;;
77361;Laerm;66427;51.798;10.954;2023-04-24T03:41:50;46.07;41.22;57.20;;
77361;Laerm;66427;51.798;10.954;2023-04-24T03:44:16;50.88;39.34;65.03;;
77361;Laerm;66427;51.798;10.954;2023-04-24T03:46:41;53.44;40.07;66.07;;
77361;Laerm;66427;51.798;10.954;2023-04-24T03:49:07;52.50;40.29;67.01;;
77361;Laerm;66427;51.798;10.954;2023-04-24T03:51:33;53.99;41.42;65.58;;
77361;Laerm;66427;51.798;10.954;2023-04-24T03:53:58;50.45;40.33;67.24;;
77361;Laerm;66427;51.798;10.954;2023-04-24T03:56:24;51.93;38.43;65.53;;
77361;Laerm;66427;51.798;10.954;2023-04-24T03:58:50;46.88;37.71;60.02;;
77361;Laerm;66427;51.798;10.954;2023-04-24T04:01:16;43.61;37.41;60.36;;
77361;Laerm;66427;51.798;10.954;2023-04-24T04:03:41;49.15;36.48;64.76;;
77361;Laerm;66427;51.798;10.954;2023-04-24T04:06:07;52.53;36.56;69.65;;
77361;Laerm;66427;51.798;10.954;2023-04-24T04:08:33;43.02;36.42;57.92;;
77361;Laerm;66427;51.798;10.954;2023-04-24T04:10:59;46.57;37.04;59.93;;
77361;Laerm;66427;51.798;10.954;2023-04-24T04:13:24;51.19;37.28;63.95;;
77361;Laerm;66427;51.798;10.954;2023-04-24T04:15:50;51.33;37.52;68.49;;
77361;Laerm;66427;51.798;10.954;2023-04-24T04:18:16;46.42;37.09;63.11;;
77361;Laerm;66427;51.798;10.954;2023-04-24T04:20:42;52.40;36.73;68.76;;
77361;Laerm;66427;51.798;10.954;2023-04-24T04:23:07;51.65;35.28;65.57;;
77361;Laerm;66427;51.798;10.954;2023-04-24T04:25:33;49.64;36.33;64.37;;
77361;Laerm;66427;51.798;10.954;2023-04-24T04:27:59;54.99;35.99;66.45;;
77361;Laerm;66427;51.798;10.954;2023-04-24T04:30:25;54.61;36.70;67.24;;
77361;Laerm;66427;51.798;10.954;2023-04-24T04:32:51;47.69;36.44;68.02;;
77361;Laerm;66427;51.798;10.954;2023-04-24T04:35:16;54.80;36.87;70.57;;
77361;Laerm;66427;51.798;10.954;2023-04-24T04:37:42;48.56;36.13;62.72;;
77361;Laerm;66427;51.798;10.954;2023-04-24T04:40:08;51.84;36.48;68.50;;
77361;Laerm;66427;51.798;10.954;2023-04-24T04:42:37;55.28;37.60;69.01;;
77361;Laerm;66427;51.798;10.954;2023-04-24T04:45:08;56.67;37.11;69.98;;
77361;Laerm;66427;51.798;10.954;2023-04-24T04:47:36;49.97;36.83;64.83;;
77361;Laerm;66427;51.798;10.954;2023-04-24T04:50:02;63.90;38.73;81.77;;
77361;Laerm;66427;51.798;10.954;2023-04-24T04:52:29;55.50;37.42;71.46;;
77361;Laerm;66427;51.798;10.954;2023-04-24T04:54:55;57.69;38.46;74.83;;
77361;Laerm;66427;51.798;10.954;2023-04-24T04:57:21;51.03;38.45;68.89;;
77361;Laerm;66427;51.798;10.954;2023-04-24T04:59:46;55.60;38.31;66.47;;
77361;Laerm;66427;51.798;10.954;2023-04-24T05:02:12;55.52;38.12;67.33;;
77361;Laerm;66427;51.798;10.954;2023-04-24T05:04:38;54.69;38.06;67.95;;
77361;Laerm;66427;51.798;10.954;2023-04-24T05:07:04;51.73;36.63;66.11;;
77361;Laerm;66427;51.798;10.954;2023-04-24T05:09:31;57.77;38.47;70.35;;
77361;Laerm;66427;51.798;10.954;2023-04-24T05:11:57;56.41;39.12;68.27;;
77361;Laerm;66427;51.798;10.954;2023-04-24T05:14:22;55.90;37.81;67.34;;
77361;Laerm;66427;51.798;10.954;2023-04-24T05:16:48;53.85;37.32;64.38;;
77361;Laerm;66427;51.798;10.954;2023-04-24T05:19:14;56.06;40.22;68.27;;
77361;Laerm;66427;51.798;10.954;2023-04-24T05:21:40;62.27;43.70;78.64;;
77361;Laerm;66427;51.798;10.954;2023-04-24T05:24:06;59.49;47.33;70.88;;
77361;Laerm;66427;51.798;10.954;2023-04-24T05:26:32;58.48;44.90;68.11;;
77361;Laerm;66427;51.798;10.954;2023-04-24T05:28:57;58.75;42.00;67.97;;
77361;Laerm;66427;51.798;10.954;2023-04-24T05:31:23;59.43;44.45;68.58;;
77361;Laerm;66427;51.798;10.954;2023-04-24T05:33:50;60.19;43.39;72.99;;
77361;Laerm;66427;51.798;10.954;2023-04-24T05:36:16;61.55;48.70;70.13;;
77361;Laerm;66427;51.798;10.954;2023-04-24T05:38:41;59.75;43.21;73.06;;
77361;Laerm;66427;51.798;10.954;2023-04-24T05:41:07;62.28;42.18;78.57;;
77361;Laerm;66427;51.798;10.954;2023-04-24T05:43:33;53.60;42.75;63.96;;
77361;Laerm;66427;51.798;10.954;2023-04-24T05:45:59;56.97;44.19;66.43;;
77361;Laerm;66427;51.798;10.954;2023-04-24T05:48:25;54.41;44.23;67.02;;
77361;Laerm;66427;51.798;10.954;2023-04-24T05:50:51;53.91;45.78;64.22;;
77361;Laerm;66427;51.798;10.954;2023-04-24T05:53:17;58.18;44.14;67.41;;
77361;Laerm;66427;51.798;10.954;2023-04-24T05:55:43;58.48;47.99;67.02;;
77361;Laerm;66427;51.798;10.954;2023-04-24T05:58:09;58.78;46.94;67.79;;
77361;Laerm;66427;51.798;10.954;2023-04-24T06:00:35;59.84;46.57;70.61;;
77361;Laerm;66427;51.798;10.954;2023-04-24T06:03:01;56.41;46.30;67.03;;
77361;Laerm;66427;51.798;10.954;2023-04-24T06:05:28;54.21;43.66;64.02;;
77361;Laerm;66427;51.798;10.954;2023-04-24T06:07:55;54.47;43.45;65.32;;
77361;Laerm;66427;51.798;10.954;2023-04-24T06:10:21;55.09;42.79;66.70;;
77361;Laerm;66427;51.798;10.954;2023-04-24T06:12:47;53.69;42.15;65.47;;
77361;Laerm;66427;51.798;10.954;2023-04-24T06:15:13;54.78;42.98;71.25;;
77361;Laerm;66427;51.798;10.954;2023-04-24T06:17:38;53.29;41.83;65.24;;
77361;Laerm;66427;51.798;10.954;2023-04-24T06:20:05;54.79;43.15;63.96;;
77361;Laerm;66427;51.798;10.954;2023-04-24T06:22:31;55.35;40.39;69.04;;
77361;Laerm;66427;51.798;10.954;2023-04-24T06:24:57;55.67;39.80;69.54;;
77361;Laerm;66427;51.798;10.954;2023-04-24T06:27:23;51.24;39.01;64.71;;
77361;Laerm;66427;51.798;10.954;2023-04-24T06:29:49;58.54;42.44;68.21;;
77361;Laerm;66427;51.798;10.954;2023-04-24T06:32:19;45.82;39.36;57.25;;
77361;Laerm;66427;51.798;10.954;2023-04-24T06:34:45;57.61;39.19;75.93;;
77361;Laerm;66427;51.798;10.954;2023-04-24T06:37:10;55.84;38.56;67.78;;
77361;Laerm;66427;51.798;10.954;2023-04-24T06:39:36;56.25;38.51;71.01;;
77361;Laerm;66427;51.798;10.954;2023-04-24T06:42:02;55.63;39.84;68.84;;
77361;Laerm;66427;51.798;10.954;2023-04-24T06:44:28;54.87;37.99;69.13;;
77361;Laerm;66427;51.798;10.954;2023-04-24T06:46:53;53.27;38.17;66.59;;
77361;Laerm;66427;51.798;10.954;2023-04-24T06:49:19;52.26;37.78;64.13;;
77361;Laerm;66427;51.798;10.954;2023-04-24T06:51:45;62.21;36.87;78.00;;
77361;Laerm;66427;51.798;10.954;2023-04-24T06:54:11;56.34;41.18;73.11;;
77361;Laerm;66427;51.798;10.954;2023-04-24T06:56:37;56.43;39.43;74.06;;
77361;Laerm;66427;51.798;10.954;2023-04-24T06:59:02;52.34;39.25;62.21;;
77361;Laerm;66427;51.798;10.954;2023-04-24T07:01:28;57.69;41.43;70.70;;
77361;Laerm;66427;51.798;10.954;2023-04-24T07:03:54;56.96;36.35;68.80;;
77361;Laerm;66427;51.798;10.954;2023-04-24T07:06:20;51.42;37.94;64.74;;
77361;Laerm;66427;51.798;10.954;2023-04-24T07:08:47;54.66;38.43;64.77;;
77361;Laerm;66427;51.798;10.954;2023-04-24T07:11:13;55.51;38.06;68.62;;
77361;Laerm;66427;51.798;10.954;2023-04-24T07:13:39;52.31;39.11;62.83;;
77361;Laerm;66427;51.798;10.954;2023-04-24T07:16:07;56.72;41.08;67.47;;
77361;Laerm;66427;51.798;10.954;2023-04-24T07:18:33;55.81;39.60;66.64;;
77361;Laerm;66427;51.798;10.954;2023-04-24T07:20:59;59.43;39.20;73.58;;
77361;Laerm;66427;51.798;10.954;2023-04-24T07:23:24;55.17;39.21;70.03;;
77361;Laerm;66427;51.798;10.954;2023-04-24T07:25:50;58.09;40.14;68.04;;
77361;Laerm;66427;51.798;10.954;2023-04-24T07:28:16;58.74;40.82;73.27;;
77361;Laerm;66427;51.798;10.954;2023-04-24T07:30:43;58.53;40.91;74.26;;
77361;Laerm;66427;51.798;10.954;2023-04-24T07:33:08;59.19;43.36;71.99;;
77361;Laerm;66427;51.798;10.954;2023-04-24T07:35:36;59.06;43.17;71.60;;
77361;Laerm;66427;51.798;10.954;2023-04-24T07:38:01;56.14;48.77;63.47;;
77361;Laerm;66427;51.798;10.954;2023-04-24T07:40:27;59.18;42.87;73.58;;
77361;Laerm;66427;51.798;10.954;2023-04-24T07:42:53;54.87;40.52;70.82;;
77361;Laerm;66427;51.798;10.954;2023-04-24T07:45:19;59.37;41.35;74.63;;
77361;Laerm;66427;51.798;10.954;2023-04-24T07:47:45;54.65;43.07;69.03;;
77361;Laerm;66427;51.798;10.954;2023-04-24T07:50:11;52.56;40.34;63.12;;
77361;Laerm;66427;51.798;10.954;2023-04-24T07:52:37;59.05;39.48;74.64;;
77361;Laerm;66427;51.798;10.954;2023-04-24T07:55:04;57.48;39.85;71.27;;
77361;Laerm;66427;51.798;10.954;2023-04-24T07:57:29;63.76;41.96;79.17;;
77361;Laerm;66427;51.798;10.954;2023-04-24T07:59:55;53.47;39.14;65.29;;
77361;Laerm;66427;51.798;10.954;2023-04-24T08:02:21;56.89;41.72;66.52;;
77361;Laerm;66427;51.798;10.954;2023-04-24T08:04:51;57.58;44.26;67.77;;
77361;Laerm;66427;51.798;10.954;2023-04-24T08:07:18;62.90;49.53;75.47;;
77361;Laerm;66427;51.798;10.954;2023-04-24T08:09:43;56.40;46.18;68.12;;
77361;Laerm;66427;51.798;10.954;2023-04-24T08:12:09;55.85;42.60;66.64;;
77361;Laerm;66427;51.798;10.954;2023-04-24T08:14:36;60.44;43.12;68.02;;
77361;Laerm;66427;51.798;10.954;2023-04-24T08:17:02;67.07;55.85;73.86;;
77361;Laerm;66427;51.798;10.954;2023-04-24T08:19:28;65.35;55.11;72.39;;
77361;Laerm;66427;51.798;10.954;2023-04-24T08:21:54;58.73;43.71;64.48;;
77361;Laerm;66427;51.798;10.954;2023-04-24T08:24:20;59.02;41.60;67.19;;
77361;Laerm;66427;51.798;10.954;2023-04-24T08:26:46;64.01;56.01;71.32;;
77361;Laerm;66427;51.798;10.954;2023-04-24T08:29:15;61.12;45.93;68.80;;
77361;Laerm;66427;51.798;10.954;2023-04-24T08:31:41;62.80;49.43;70.07;;
77361;Laerm;66427;51.798;10.954;2023-04-24T08:34:06;63.21;57.72;73.91;;
77361;Laerm;66427;51.798;10.954;2023-04-24T08:36:32;61.12;49.68;70.22;;
77361;Laerm;66427;51.798;10.954;2023-04-24T08:39:01;55.03;46.32;65.42;;
77361;Laerm;66427;51.798;10.954;2023-04-24T08:41:27;57.34;46.29;69.48;;
77361;Laerm;66427;51.798;10.954;2023-04-24T08:43:53;57.33;43.52;75.28;;
77361;Laerm;66427;51.798;10.954;2023-04-24T08:46:20;63.30;43.37;80.90;;
77361;Laerm;66427;51.798;10.954;2023-04-24T08:48:46;57.12;45.81;65.20;;
77361;Laerm;66427;51.798;10.954;2023-04-24T08:51:12;58.45;45.43;65.26;;
77361;Laerm;66427;51.798;10.954;2023-04-24T08:53:39;58.08;42.91;70.53;;
77361;Laerm;66427;51.798;10.954;2023-04-24T08:56:05;60.01;46.61;72.24;;
77361;Laerm;66427;51.798;10.954;2023-04-24T08:58:31;58.20;46.93;69.35;;
77361;Laerm;66427;51.798;10.954;2023-04-24T09:00:57;57.17;47.60;65.84;;
77361;Laerm;66427;51.798;10.954;2023-04-24T09:03:24;56.40;46.45;66.59;;
77361;Laerm;66427;51.798;10.954;2023-04-24T09:05:50;64.30;45.48;80.51;;
77361;Laerm;66427;51.798;10.954;2023-04-24T09:08:16;55.65;40.15;66.93;;
77361;Laerm;66427;51.798;10.954;2023-04-24T09:10:42;56.80;42.73;67.06;;
77361;Laerm;66427;51.798;10.954;2023-04-24T09:13:08;49.92;41.01;68.54;;
77361;Laerm;66427;51.798;10.954;2023-04-24T09:15:36;54.77;39.20;68.76;;
77361;Laerm;66427;51.798;10.954;2023-04-24T09:18:01;59.13;40.91;70.60;;
77361;Laerm;66427;51.798;10.954;2023-04-24T09:20:27;63.22;46.98;85.77;;
77361;Laerm;66427;51.798;10.954;2023-04-24T09:22:54;57.48;47.61;67.62;;
77361;Laerm;66427;51.798;10.954;2023-04-24T09:25:23;57.68;46.34;67.36;;
77361;Laerm;66427;51.798;10.954;2023-04-24T09:27:59;57.39;46.96;68.79;;
77361;Laerm;66427;51.798;10.954;2023-04-24T09:30:25;57.82;47.43;71.39;;
77361;Laerm;66427;51.798;10.954;2023-04-24T09:33:09;55.57;43.44;65.67;;
77361;Laerm;66427;51.798;10.954;2023-04-24T09:35:35;59.61;45.36;73.31;;
77361;Laerm;66427;51.798;10.954;2023-04-24T09:38:00;59.73;42.91;74.76;;
77361;Laerm;66427;51.798;10.954;2023-04-24T09:40:26;53.32;43.03;65.28;;
77361;Laerm;66427;51.798;10.954;2023-04-24T09:42:53;55.17;43.69;68.76;;
77361;Laerm;66427;51.798;10.954;2023-04-24T09:45:19;56.34;42.67;67.64;;
77361;Laerm;66427;51.798;10.954;2023-04-24T09:47:45;57.53;44.84;65.95;;
77361;Laerm;66427;51.798;10.954;2023-04-24T09:50:15;56.29;46.00;64.50;;
77361;Laerm;66427;51.798;10.954;2023-04-24T09:52:45;54.73;47.01;74.41;;
77361;Laerm;66427;51.798;10.954;2023-04-24T09:55:11;58.47;41.28;71.33;;
77361;Laerm;66427;51.798;10.954;2023-04-24T09:57:46;51.96;39.05;67.58;;
77361;Laerm;66427;51.798;10.954;2023-04-24T10:00:12;53.16;39.65;64.75;;
77361;Laerm;66427;51.798;10.954;2023-04-24T10:02:38;54.24;38.82;67.88;;
77361;Laerm;66427;51.798;10.954;2023-04-24T10:05:04;56.07;40.80;66.28;;
77361;Laerm;66427;51.798;10.954;2023-04-24T10:07:32;57.23;40.17;73.64;;
77361;Laerm;66427;51.798;10.954;2023-04-24T10:09:58;55.64;39.01;75.91;;
77361;Laerm;66427;51.798;10.954;2023-04-24T10:12:24;55.34;40.81;66.41;;
77361;Laerm;66427;51.798;10.954;2023-04-24T10:14:50;49.08;38.23;64.25;;
77361;Laerm;66427;51.798;10.954;2023-04-24T10:17:16;54.52;39.91;65.73;;
77361;Laerm;66427;51.798;10.954;2023-04-24T10:19:42;51.74;38.14;67.28;;
77361;Laerm;66427;51.798;10.954;2023-04-24T10:22:08;54.70;40.10;68.39;;
77361;Laerm;66427;51.798;10.954;2023-04-24T10:24:35;49.41;38.89;64.18;;
77361;Laerm;66427;51.798;10.954;2023-04-24T10:27:03;51.62;38.89;64.41;;
77361;Laerm;66427;51.798;10.954;2023-04-24T10:29:31;52.34;38.05;68.64;;
77361;Laerm;66427;51.798;10.954;2023-04-24T10:31:57;51.65;36.82;65.47;;
77361;Laerm;66427;51.798;10.954;2023-04-24T10:34:23;57.61;38.15;71.22;;
77361;Laerm;66427;51.798;10.954;2023-04-24T10:36:50;53.85;39.11;65.46;;
77361;Laerm;66427;51.798;10.954;2023-04-24T10:39:16;60.40;41.88;69.85;;
77361;Laerm;66427;51.798;10.954;2023-04-24T10:41:43;57.39;40.66;71.21;;
77361;Laerm;66427;51.798;10.954;2023-04-24T10:44:12;57.67;39.30;72.85;;
77361;Laerm;66427;51.798;10.954;2023-04-24T10:46:39;56.65;39.62;68.06;;
77361;Laerm;66427;51.798;10.954;2023-04-24T10:49:07;52.84;38.89;63.30;;
77361;Laerm;66427;51.798;10.954;2023-04-24T10:51:49;51.23;39.81;64.01;;
77361;Laerm;66427;51.798;10.954;2023-04-24T10:54:21;52.21;39.35;64.32;;
77361;Laerm;66427;51.798;10.954;2023-04-24T10:56:47;56.85;38.97;71.19;;
77361;Laerm;66427;51.798;10.954;2023-04-24T10:59:13;55.99;42.91;66.79;;
77361;Laerm;66427;51.798;10.954;2023-04-24T11:01:52;57.47;42.50;70.37;;
77361;Laerm;66427;51.798;10.954;2023-04-24T11:04:21;53.79;44.10;66.44;;
77361;Laerm;66427;51.798;10.954;2023-04-24T11:06:54;57.82;41.87;70.10;;
77361;Laerm;66427;51.798;10.954;2023-04-24T11:09:20;58.57;44.44;66.15;;
77361;Laerm;66427;51.798;10.954;2023-04-24T11:11:46;63.38;45.86;76.14;;
77361;Laerm;66427;51.798;10.954;2023-04-24T11:14:15;54.45;44.00;65.52;;
77361;Laerm;66427;51.798;10.954;2023-04-24T11:21:42;53.52;40.63;65.13;;
77361;Laerm;66427;51.798;10.954;2023-04-24T11:26:51;52.86;41.60;67.84;;
77361;Laerm;66427;51.798;10.954;2023-04-24T11:29:17;52.30;42.18;64.62;;
77361;Laerm;66427;51.798;10.954;2023-04-24T11:31:44;52.01;40.97;63.96;;
77361;Laerm;66427;51.798;10.954;2023-04-24T11:34:16;60.15;42.86;74.41;;
77361;Laerm;66427;51.798;10.954;2023-04-24T11:36:43;54.02;42.01;68.34;;
77361;Laerm;66427;51.798;10.954;2023-04-24T11:39:09;58.89;43.53;73.33;;
77361;Laerm;66427;51.798;10.954;2023-04-24T11:41:36;57.34;42.26;78.81;;
77361;Laerm;66427;51.798;10.954;2023-04-24T11:44:02;51.68;43.21;66.39;;
77361;Laerm;66427;51.798;10.954;2023-04-24T11:46:29;61.26;44.05;77.79;;
77361;Laerm;66427;51.798;10.954;2023-04-24T11:48:56;58.97;42.36;76.21;;
77361;Laerm;66427;51.798;10.954;2023-04-24T11:51:23;56.94;43.83;67.64;;
77361;Laerm;66427;51.798;10.954;2023-04-24T11:53:50;59.83;43.39;75.88;;
77361;Laerm;66427;51.798;10.954;2023-04-24T11:56:18;59.33;38.72;76.21;;
77361;Laerm;66427;51.798;10.954;2023-04-24T11:58:44;56.95;39.95;72.72;;
77361;Laerm;66427;51.798;10.954;2023-04-24T12:01:11;52.84;39.34;69.61;;
77361;Laerm;66427;51.798;10.954;2023-04-24T12:03:37;52.99;39.41;63.43;;
77361;Laerm;66427;51.798;10.954;2023-04-24T12:06:06;53.78;38.63;65.34;;
77361;Laerm;66427;51.798;10.954;2023-04-24T12:08:32;60.81;38.50;76.79;;
77361;Laerm;66427;51.798;10.954;2023-04-24T12:11:02;48.75;38.67;64.09;;
77361;Laerm;66427;51.798;10.954;2023-04-24T12:13:29;55.23;40.86;68.01;;
77361;Laerm;66427;51.798;10.954;2023-04-24T12:15:56;52.51;40.36;65.35;;
77361;Laerm;66427;51.798;10.954;2023-04-24T12:18:22;54.56;38.91;64.80;;
77361;Laerm;66427;51.798;10.954;2023-04-24T12:20:48;49.32;37.87;62.42;;
77361;Laerm;66427;51.798;10.954;2023-04-24T12:23:14;54.91;39.04;70.98;;
77361;Laerm;66427;51.798;10.954;2023-04-24T12:25:40;58.12;41.34;71.83;;
77361;Laerm;66427;51.798;10.954;2023-04-24T12:30:38;54.30;38.16;68.18;;
77361;Laerm;66427;51.798;10.954;2023-04-24T12:33:04;54.95;41.57;66.18;;
77361;Laerm;66427;51.798;10.954;2023-04-24T12:35:31;57.65;44.76;71.72;;
77361;Laerm;66427;51.798;10.954;2023-04-24T12:38:07;55.38;43.32;66.42;;
77361;Laerm;66427;51.798;10.954;2023-04-24T12:40:33;55.36;45.16;66.95;;
77361;Laerm;66427;51.798;10.954;2023-04-24T12:42:59;53.33;43.44;62.90;;
77361;Laerm;66427;51.798;10.954;2023-04-24T12:45:26;56.48;45.10;65.53;;
77361;Laerm;66427;51.798;10.954;2023-04-24T12:47:54;56.90;42.46;67.00;;
77361;Laerm;66427;51.798;10.954;2023-04-24T12:50:20;53.62;44.35;63.11;;
77361;Laerm;66427;51.798;10.954;2023-04-24T12:52:46;56.72;45.80;65.19;;
77361;Laerm;66427;51.798;10.954;2023-04-24T12:55:12;57.13;42.29;69.13;;
77361;Laerm;66427;51.798;10.954;2023-04-24T12:57:38;59.37;38.92;72.09;;
77361;Laerm;66427;51.798;10.954;2023-04-24T13:00:05;55.45;42.74;69.62;;
77361;Laerm;66427;51.798;10.954;2023-04-24T13:02:31;58.52;42.19;66.37;;
77361;Laerm;66427;51.798;10.954;2023-04-24T13:04:58;52.97;41.72;65.49;;
77361;Laerm;66427;51.798;10.954;2023-04-24T13:07:25;56.19;39.14;66.46;;
77361;Laerm;66427;51.798;10.954;2023-04-24T13:09:51;52.21;40.13;65.48;;
77361;Laerm;66427;51.798;10.954;2023-04-24T13:12:17;50.15;40.43;67.75;;
77361;Laerm;66427;51.798;10.954;2023-04-24T13:14:43;57.47;41.60;69.78;;
77361;Laerm;66427;51.798;10.954;2023-04-24T13:17:11;56.38;41.23;66.45;;
77361;Laerm;66427;51.798;10.954;2023-04-24T13:19:42;56.32;40.97;66.01;;
77361;Laerm;66427;51.798;10.954;2023-04-24T13:22:10;59.64;45.67;75.36;;
77361;Laerm;66427;51.798;10.954;2023-04-24T13:24:39;59.42;48.27;68.92;;
77361;Laerm;66427;51.798;10.954;2023-04-24T13:27:06;58.51;45.63;68.69;;
77361;Laerm;66427;51.798;10.954;2023-04-24T13:29:32;56.64;45.30;66.93;;
77361;Laerm;66427;51.798;10.954;2023-04-24T13:31:59;57.17;45.19;68.09;;
77361;Laerm;66427;51.798;10.954;2023-04-24T13:34:26;60.55;41.38;77.09;;
77361;Laerm;66427;51.798;10.954;2023-04-24T13:36:52;54.53;41.35;66.40;;